Flight Track Log - Related Links

Times and Time Zones

All times are in EDT time to prevent confusion due to time zone crossing. See the SWA2005 flight status page for this flight to view local times or setup timezone preferences in your user account.

Time Position Orientation Groundspeed Altitude Reporting Facility
EDT Latitude Longitude Course Direction KTS MPH feet Rate Location/Type
Fri 12:18:28 AM 37.3833 -121.9500 22° Northeast 168 193 1,700  Level Northern Cal TRACON
Fri 12:19:22 AM 37.4167 -121.9333 22° Northeast 251 289 4,500 2,474 Climbing Northern Cal TRACON
Fri 12:20:22 AM 37.3833 -121.8667 122° Southeast 232 267 6,400 2,424 Climbing Northern Cal TRACON
Fri 12:21:01 AM 37.3542 -121.8372 141° Southeast 235 270 8,500 2,880 Climbing Oakland Center
Fri 12:22:02 AM 37.2939 -121.7717 139° Southeast 284 327 11,200 3,049 Climbing Oakland Center
Fri 12:23:03 AM 37.2181 -121.6828 137° Southeast 360 414 14,700 3,492 Climbing Oakland Center
Fri 12:24:04 AM 37.1356 -121.5942 139° Southeast 388 447 18,300 3,344 Climbing Oakland Center
Fri 12:25:05 AM 37.0475 -121.4936 138° Southeast 415 478 21,500 3,049 Climbing Oakland Center
Fri 12:26:06 AM 36.9572 -121.3936 138° Southeast 431 496 24,500 2,754 Climbing Oakland Center
Fri 12:27:07 AM 36.8633 -121.2903 139° Southeast 448 516 27,100 1,721 Climbing Oakland Center
Fri 12:28:08 AM 36.7553 -121.1719 139° Southeast 461 531 28,000 443 Climbing Oakland Center
Fri 12:29:09 AM 36.6681 -121.0528 132° Southeast 464 534 28,000  Level Oakland Center
Fri 12:30:10 AM 36.5828 -120.9328 131° Southeast 463 533 28,000  Level Oakland Center
Fri 12:31:11 AM 36.4972 -120.8117 131° Southeast 465 535 28,000 732 Level Oakland Center
Fri 12:32:13 AM 36.4128 -120.6925 131° Southeast 460 529 29,500 2,585 Climbing Oakland Center
Fri 12:33:14 AM 36.3319 -120.5786 131° Southeast 442 509 33,300 2,705 Climbing Oakland Center
Fri 12:34:15 AM 36.2544 -120.4728 132° Southeast 418 481 35,000 836 Climbing Oakland Center
Fri 12:35:16 AM 36.1586 -120.3400 132° Southeast 427 491 35,000 689 Level Oakland Center
Fri 12:36:17 AM 36.0778 -120.2292 132° Southeast 431 496 36,400 984 Climbing Oakland Center
Fri 12:37:18 AM 35.9978 -120.1186 132° Southeast 429 494 37,000 295 Climbing Oakland Center
Fri 12:38:19 AM 35.9183 -120.0092 132° Southeast 426 490 37,000  Level Oakland Center
Fri 12:39:20 AM 35.8375 -119.8997 132° Southeast 428 493 37,000  Level Oakland Center
Fri 12:40:21 AM 35.7622 -119.7858 129° Southeast 427 491 37,000  Level Oakland Center
Fri 12:41:22 AM 35.7072 -119.6481 116° Southeast 445 512 37,000  Level Oakland Center
Fri 12:42:23 AM 35.6531 -119.5108 116° Southeast 445 512 37,000  Level Oakland Center
Fri 12:43:24 AM 35.5969 -119.3767 117° Southeast 442 509 37,000  Level Oakland Center
Fri 12:44:25 AM 35.5419 -119.2428 117° Southeast 439 505 37,000  Level Oakland Center
Fri 12:45:26 AM 35.4900 -119.1092 115° Southeast 435 501 37,000  Level Oakland Center
Fri 12:46:28 AM 35.4339 -118.9764 117° Southeast 437 503 37,000  Level Oakland Center
Fri 12:47:29 AM 35.3803 -118.8414 116° Southeast 439 505 37,000  Level Oakland Center
Fri 12:48:30 AM 35.3250 -118.7083 117° Southeast 437 503 37,000  Level Oakland Center
Fri 12:49:31 AM 35.2581 -118.5467 117° Southeast 443 510 37,000  Level Oakland Center
Fri 12:50:32 AM 35.2039 -118.4125 116° Southeast 440 506 37,000  Level Oakland Center
Fri 12:51:33 AM 35.1489 -118.2775 116° Southeast 441 507 37,000  Level Oakland Center
Fri 12:52:41 AM 35.0911 -118.1472 118° Southeast 443 510 37,000  Level Los Angeles Center
Fri 12:53:43 AM 35.0250 -117.9908 117° Southeast 437 503 37,000  Level Los Angeles Center
Fri 12:54:44 AM 34.9692 -117.8617 118° Southeast 436 502 37,000  Level Los Angeles Center
Fri 12:55:46 AM 34.9133 -117.7336 118° Southeast 441 507 37,000  Level Los Angeles Center
Fri 12:56:47 AM 34.8583 -117.6044 117° Southeast 444 511 37,000  Level Los Angeles Center
Fri 12:57:49 AM 34.8025 -117.4756 118° Southeast 451 519 37,000  Level Los Angeles Center
Fri 12:58:50 AM 34.7489 -117.3475 117° Southeast 446 513 37,000  Level Los Angeles Center
Fri 12:59:52 AM 34.6839 -117.1942 117° Southeast 437 503 37,000  Level Los Angeles Center
Fri 01:00:53 AM 34.6392 -117.0917 118° Southeast 442 509 37,000  Level Los Angeles Center
Fri 01:01:55 AM 34.5706 -116.9403 119° Southeast 435 501 37,000  Level Los Angeles Center
Fri 01:02:56 AM 34.5178 -116.8072 116° Southeast 445 512 37,000  Level Los Angeles Center
Fri 01:04:10 AM 34.4606 -116.6808 119° Southeast 432 497 37,000  Level Los Angeles Center
Fri 01:05:12 AM 34.3947 -116.5289 118° Southeast 432 497 37,000  Level Los Angeles Center
Fri 01:06:13 AM 34.3419 -116.4017 117° Southeast 426 490 37,000  Level Los Angeles Center
Fri 01:07:15 AM 34.2739 -116.2533 119° Southeast 424 488 37,000  Level Los Angeles Center
Fri 01:08:16 AM 34.2186 -116.1272 118° Southeast 425 489 37,000  Level Los Angeles Center
Fri 01:09:18 AM 34.1617 -116.0025 119° Southeast 425 489 37,000  Level Los Angeles Center
Fri 01:10:19 AM 34.1106 -115.8889 118° Southeast 423 487 37,000  Level Los Angeles Center
Fri 01:11:21 AM 34.0439 -115.7394 118° Southeast 420 483 37,000  Level Los Angeles Center
Fri 01:12:22 AM 33.9878 -115.6164 119° Southeast 419 482 37,000  Level Los Angeles Center
Fri 01:13:24 AM 33.9322 -115.4944 119° Southeast 415 478 37,000  Level Los Angeles Center
Fri 01:14:25 AM 33.8764 -115.3717 119° Southeast 417 480 37,000  Level Los Angeles Center
Fri 01:15:27 AM 33.8200 -115.2494 119° Southeast 418 481 37,000  Level Los Angeles Center
Fri 01:16:28 AM 33.7650 -115.1281 119° Southeast 414 476 37,000  Level Los Angeles Center
Fri 01:17:30 AM 33.7083 -115.0072 119° Southeast 413 475 37,000 -49 Level Los Angeles Center
Fri 01:18:31 AM 33.6544 -114.8875 118° Southeast 409 471 36,900 -541 Descending Los Angeles Center
Fri 01:19:32 AM 33.5994 -114.7661 119° Southeast 411 473 35,900 -1,073 Descending Los Angeles Center
Fri 01:20:34 AM 33.5625 -114.5981 105° East 433 498 34,700 -1,610 Descending Los Angeles Center
Fri 01:21:35 AM 33.5339 -114.4567 104° East 437 503 32,600 -2,557 Descending Los Angeles Center
Fri 01:22:36 AM 33.5069 -114.3153 103° East 437 503 29,500 -2,927 Descending Los Angeles Center
Fri 01:23:38 AM 33.4794 -114.1753 103° East 434 499 26,600 -2,244 Descending Los Angeles Center
Fri 01:24:39 AM 33.4522 -114.0411 104° East 422 486 24,900 -780 Descending Los Angeles Center
Fri 01:25:41 AM 33.4297 -113.9097 102° East 408 470 25,000 49 Climbing Los Angeles Center
Fri 01:26:42 AM 33.4131 -113.7753 98° East 408 470 25,000  Level Los Angeles Center
Fri 01:27:43 AM 33.3953 -113.6417 99° East 409 471 25,000  Level Los Angeles Center
Fri 01:28:45 AM 33.3772 -113.5081 99° East 408 470 25,000  Level Los Angeles Center
Fri 01:29:46 AM 33.3578 -113.3725 100° East 411 473 25,000 -1,180 Level Los Angeles Center
Fri 01:30:47 AM 33.3378 -113.2158 99° East 416 479 22,600 -2,164 Descending Los Angeles Center
Fri 01:31:48 AM 33.3231 -113.1117 100° East 406 467 20,600 -2,463 Descending Los Angeles Center
Fri 01:32:22 AM 33.3000 -113.0167 106° East 380 437 18,700 -3,000 Descending Phoenix TRACON
Fri 01:32:52 AM 33.3000 -112.9500 90° East 375 432 17,400 -1,800 Descending Phoenix TRACON
Fri 01:33:52 AM 33.2833 -112.8333 100° East 352 405 16,000 -700 Descending Phoenix TRACON
Fri 01:34:52 AM 33.2833 -112.7333 90° East 327 376 16,000 -347 Level Phoenix TRACON
Fri 01:35:53 AM 33.2833 -112.6167 90° East 315 362 15,300 -1,218 Descending Phoenix TRACON
Fri 01:37:05 AM 33.2833 -112.5000 90° East 308 354 13,300 -1,682 Descending Phoenix TRACON
Fri 01:38:05 AM 33.2833 -112.4000 90° East 306 352 11,600 -1,095 Descending Phoenix TRACON
Fri 01:39:11 AM 33.3000 -112.2833 80° East 302 348 11,000 -962 Descending Phoenix TRACON
Fri 01:40:16 AM 33.3039 -112.1939 87° East 300 345 9,500 -952 Descending Albuquerque Center
Fri 01:41:17 AM 33.3103 -112.1042 85° East 275 316 9,000 -738 Descending Albuquerque Center
Fri 01:42:18 AM 33.3286 -112.0261 74° East 249 287 8,000 -1,140 Descending Albuquerque Center
Fri 01:43:18 AM 33.3469 -111.9475 74° East 247 284 6,700 -1,289 Descending Albuquerque Center
Fri 01:44:19 AM 33.3464 -111.8697 90° East 234 269 5,400 -1,377 Descending Albuquerque Center
Fri 01:45:20 AM 33.3983 -111.8572 11° North 201 231 3,900 -1,320 Descending Albuquerque Center
Fri 01:45:59 AM 33.4333 -111.8833 328° Northwest 166 191 3,200 -968 Descending Phoenix TRACON
Fri 01:46:53 AM 33.4333 -111.9167 270° West 141 162 2,400 -850 Descending Phoenix TRACON
Fri 01:47:59 AM 33.4333 -111.9667 270° West 127 146 1,500 -818 Descending Phoenix TRACON

Login

Don't have an account? Register now (free) for customized features, flight alerts, and more!